sensor_id;sensor_type;location;lat;lon;timestamp;pressure;altitude;pressure_sealevel;temperature;humidity
83815;BME280;73829;53.826;-3.034;2024-02-26T00:02:27;100580.46;;;17.04;56.00
83815;BME280;73829;53.826;-3.034;2024-02-26T00:04:58;100583.08;;;17.05;56.04
83815;BME280;73829;53.826;-3.034;2024-02-26T00:07:31;100585.44;;;17.03;55.99
83815;BME280;73829;53.826;-3.034;2024-02-26T00:10:03;100586.67;;;17.03;55.99
83815;BME280;73829;53.826;-3.034;2024-02-26T00:12:34;100592.83;;;17.03;55.99
83815;BME280;73829;53.826;-3.034;2024-02-26T00:15:06;100595.30;;;17.02;56.01
83815;BME280;73829;53.826;-3.034;2024-02-26T00:17:38;100603.58;;;17.02;55.89
83815;BME280;73829;53.826;-3.034;2024-02-26T00:20:12;100609.94;;;17.01;55.94
83815;BME280;73829;53.826;-3.034;2024-02-26T00:22:43;100614.69;;;17.01;55.91
83815;BME280;73829;53.826;-3.034;2024-02-26T00:25:14;100619.11;;;17.00;55.85
83815;BME280;73829;53.826;-3.034;2024-02-26T00:27:46;100621.09;;;16.99;56.07
83815;BME280;73829;53.826;-3.034;2024-02-26T00:30:18;100628.49;;;16.99;56.01
83815;BME280;73829;53.826;-3.034;2024-02-26T00:32:49;100631.66;;;16.99;55.91
83815;BME280;73829;53.826;-3.034;2024-02-26T00:35:20;100640.00;;;16.97;55.92
83815;BME280;73829;53.826;-3.034;2024-02-26T00:37:51;100643.13;;;16.97;55.91
83815;BME280;73829;53.826;-3.034;2024-02-26T00:40:22;100651.75;;;16.97;55.90
83815;BME280;73829;53.826;-3.034;2024-02-26T00:42:53;100650.71;;;16.97;56.02
83815;BME280;73829;53.826;-3.034;2024-02-26T00:45:24;100655.56;;;16.95;55.90
83815;BME280;73829;53.826;-3.034;2024-02-26T00:47:55;100656.73;;;16.96;55.88
83815;BME280;73829;53.826;-3.034;2024-02-26T00:50:26;100660.62;;;16.96;56.00
83815;BME280;73829;53.826;-3.034;2024-02-26T00:52:57;100668.17;;;16.96;55.89
83815;BME280;73829;53.826;-3.034;2024-02-26T00:55:28;100670.11;;;16.95;55.83
83815;BME280;73829;53.826;-3.034;2024-02-26T00:58:00;100679.08;;;16.95;55.91
83815;BME280;73829;53.826;-3.034;2024-02-26T01:00:31;100675.41;;;16.95;55.76
83815;BME280;73829;53.826;-3.034;2024-02-26T01:03:02;100675.16;;;16.93;55.88
83815;BME280;73829;53.826;-3.034;2024-02-26T01:05:34;100680.39;;;16.93;55.92
83815;BME280;73829;53.826;-3.034;2024-02-26T01:08:07;100680.75;;;16.93;55.79
83815;BME280;73829;53.826;-3.034;2024-02-26T01:10:38;100684.46;;;16.93;55.79
83815;BME280;73829;53.826;-3.034;2024-02-26T01:13:09;100691.31;;;16.92;55.78
83815;BME280;73829;53.826;-3.034;2024-02-26T01:15:41;100697.84;;;16.92;55.66
83815;BME280;73829;53.826;-3.034;2024-02-26T01:18:13;100699.79;;;16.91;55.91
83815;BME280;73829;53.826;-3.034;2024-02-26T01:20:44;100705.63;;;16.91;55.78
83815;BME280;73829;53.826;-3.034;2024-02-26T01:23:15;100703.00;;;16.90;55.75
83815;BME280;73829;53.826;-3.034;2024-02-26T01:25:47;100708.13;;;16.89;55.90
83815;BME280;73829;53.826;-3.034;2024-02-26T01:28:19;100708.85;;;16.89;55.83
83815;BME280;73829;53.826;-3.034;2024-02-26T01:30:50;100711.66;;;16.89;55.73
83815;BME280;73829;53.826;-3.034;2024-02-26T01:33:21;100712.37;;;16.88;55.65
83815;BME280;73829;53.826;-3.034;2024-02-26T01:35:52;100719.44;;;16.88;55.71
83815;BME280;73829;53.826;-3.034;2024-02-26T01:38:24;100723.85;;;16.87;55.65
83815;BME280;73829;53.826;-3.034;2024-02-26T01:40:55;100729.50;;;16.87;55.57
83815;BME280;73829;53.826;-3.034;2024-02-26T01:43:26;100736.52;;;16.87;55.68
83815;BME280;73829;53.826;-3.034;2024-02-26T01:45:57;100742.39;;;16.85;55.70
83815;BME280;73829;53.826;-3.034;2024-02-26T01:48:29;100754.64;;;16.87;55.66
83815;BME280;73829;53.826;-3.034;2024-02-26T01:51:00;100760.65;;;16.86;55.64
83815;BME280;73829;53.826;-3.034;2024-02-26T01:53:31;100765.60;;;16.85;55.78
83815;BME280;73829;53.826;-3.034;2024-02-26T01:56:02;100769.45;;;16.86;55.70
83815;BME280;73829;53.826;-3.034;2024-02-26T01:58:35;100771.06;;;16.84;55.66
83815;BME280;73829;53.826;-3.034;2024-02-26T02:01:07;100773.17;;;16.84;55.72
83815;BME280;73829;53.826;-3.034;2024-02-26T02:03:39;100773.36;;;16.84;55.59
83815;BME280;73829;53.826;-3.034;2024-02-26T02:06:11;100776.90;;;16.84;55.66
83815;BME280;73829;53.826;-3.034;2024-02-26T02:08:43;100781.31;;;16.83;55.64
83815;BME280;73829;53.826;-3.034;2024-02-26T02:11:14;100788.35;;;16.83;55.57
83815;BME280;73829;53.826;-3.034;2024-02-26T02:13:46;100792.41;;;16.82;55.56
83815;BME280;73829;53.826;-3.034;2024-02-26T02:16:17;100796.63;;;16.82;55.58
83815;BME280;73829;53.826;-3.034;2024-02-26T02:18:48;100802.09;;;16.81;55.62
83815;BME280;73829;53.826;-3.034;2024-02-26T02:21:19;100809.31;;;16.81;55.42
83815;BME280;73829;53.826;-3.034;2024-02-26T02:23:50;100817.05;;;16.81;55.47
83815;BME280;73829;53.826;-3.034;2024-02-26T02:26:21;100818.48;;;16.80;55.48
83815;BME280;73829;53.826;-3.034;2024-02-26T02:28:53;100818.70;;;16.80;55.61
83815;BME280;73829;53.826;-3.034;2024-02-26T02:31:24;100825.91;;;16.79;55.59
83815;BME280;73829;53.826;-3.034;2024-02-26T02:33:55;100831.20;;;16.78;55.55
83815;BME280;73829;53.826;-3.034;2024-02-26T02:36:27;100836.66;;;16.78;55.50
83815;BME280;73829;53.826;-3.034;2024-02-26T02:38:58;100836.33;;;16.78;55.60
83815;BME280;73829;53.826;-3.034;2024-02-26T02:41:29;100843.23;;;16.76;55.59
83815;BME280;73829;53.826;-3.034;2024-02-26T02:44:01;100856.02;;;16.77;55.40
83815;BME280;73829;53.826;-3.034;2024-02-26T02:46:32;100856.39;;;16.77;55.54
83815;BME280;73829;53.826;-3.034;2024-02-26T02:49:07;100855.72;;;16.76;55.44
83815;BME280;73829;53.826;-3.034;2024-02-26T02:51:41;100859.24;;;16.76;55.55
83815;BME280;73829;53.826;-3.034;2024-02-26T02:54:12;100859.95;;;16.76;55.47
83815;BME280;73829;53.826;-3.034;2024-02-26T02:56:43;100858.38;;;16.75;55.39
83815;BME280;73829;53.826;-3.034;2024-02-26T02:59:15;100864.54;;;16.74;55.56
83815;BME280;73829;53.826;-3.034;2024-02-26T03:01:46;100866.30;;;16.74;55.34
83815;BME280;73829;53.826;-3.034;2024-02-26T03:04:17;100871.10;;;16.73;55.47
83815;BME280;73829;53.826;-3.034;2024-02-26T03:06:48;100876.90;;;16.73;55.43
83815;BME280;73829;53.826;-3.034;2024-02-26T03:09:19;100879.54;;;16.73;55.46
83815;BME280;73829;53.826;-3.034;2024-02-26T03:11:48;100879.91;;;16.72;55.48
83815;BME280;73829;53.826;-3.034;2024-02-26T03:14:19;100879.86;;;16.73;55.36
83815;BME280;73829;53.826;-3.034;2024-02-26T03:16:52;100882.20;;;16.72;55.38
83815;BME280;73829;53.826;-3.034;2024-02-26T03:19:24;100888.94;;;16.70;55.25
83815;BME280;73829;53.826;-3.034;2024-02-26T03:21:55;100896.17;;;16.69;55.44
83815;BME280;73829;53.826;-3.034;2024-02-26T03:24:26;100901.78;;;16.69;55.42
83815;BME280;73829;53.826;-3.034;2024-02-26T03:26:57;100900.13;;;16.66;55.37
83815;BME280;73829;53.826;-3.034;2024-02-26T03:29:28;100908.17;;;16.67;55.32
83815;BME280;73829;53.826;-3.034;2024-02-26T03:32:00;100911.37;;;16.66;55.35
83815;BME280;73829;53.826;-3.034;2024-02-26T03:34:31;100911.05;;;16.66;55.40
83815;BME280;73829;53.826;-3.034;2024-02-26T03:37:04;100911.58;;;16.66;55.22
83815;BME280;73829;53.826;-3.034;2024-02-26T03:39:35;100914.23;;;16.65;55.43
83815;BME280;73829;53.826;-3.034;2024-02-26T03:42:07;100922.49;;;16.65;55.31
83815;BME280;73829;53.826;-3.034;2024-02-26T03:44:38;100922.88;;;16.64;55.28
83815;BME280;73829;53.826;-3.034;2024-02-26T03:47:09;100936.38;;;16.64;55.45
83815;BME280;73829;53.826;-3.034;2024-02-26T03:49:40;100943.08;;;16.64;55.34
83815;BME280;73829;53.826;-3.034;2024-02-26T03:52:11;100947.99;;;16.64;55.30
83815;BME280;73829;53.826;-3.034;2024-02-26T03:54:42;100950.64;;;16.63;55.38
83815;BME280;73829;53.826;-3.034;2024-02-26T03:57:13;100959.97;;;16.63;55.40
83815;BME280;73829;53.826;-3.034;2024-02-26T03:59:44;100965.09;;;16.63;55.29
83815;BME280;73829;53.826;-3.034;2024-02-26T04:02:16;100966.15;;;16.62;55.36
83815;BME280;73829;53.826;-3.034;2024-02-26T04:04:49;100962.65;;;16.62;55.23
83815;BME280;73829;53.826;-3.034;2024-02-26T04:07:20;100966.70;;;16.61;55.34
83815;BME280;73829;53.826;-3.034;2024-02-26T04:09:51;100970.41;;;16.61;55.30
83815;BME280;73829;53.826;-3.034;2024-02-26T04:12:22;100976.58;;;16.60;55.20
83815;BME280;73829;53.826;-3.034;2024-02-26T04:14:53;100985.71;;;16.60;55.29
83815;BME280;73829;53.826;-3.034;2024-02-26T04:17:24;100994.34;;;16.60;55.23
83815;BME280;73829;53.826;-3.034;2024-02-26T04:19:55;101005.24;;;16.59;55.23
83815;BME280;73829;53.826;-3.034;2024-02-26T04:22:26;101012.11;;;16.59;55.20
83815;BME280;73829;53.826;-3.034;2024-02-26T04:24:57;101019.85;;;16.59;55.27
83815;BME280;73829;53.826;-3.034;2024-02-26T04:27:28;101028.65;;;16.58;55.15
83815;BME280;73829;53.826;-3.034;2024-02-26T04:29:59;101032.17;;;16.58;55.33
83815;BME280;73829;53.826;-3.034;2024-02-26T04:32:31;101033.96;;;16.57;55.27
83815;BME280;73829;53.826;-3.034;2024-02-26T04:35:04;101043.27;;;16.57;55.22
83815;BME280;73829;53.826;-3.034;2024-02-26T04:37:35;101049.77;;;16.57;55.13
83815;BME280;73829;53.826;-3.034;2024-02-26T04:40:08;101058.91;;;16.57;54.98
83815;BME280;73829;53.826;-3.034;2024-02-26T04:42:39;101064.74;;;16.56;55.20
83815;BME280;73829;53.826;-3.034;2024-02-26T04:45:11;101068.08;;;16.55;55.09
83815;BME280;73829;53.826;-3.034;2024-02-26T04:47:42;101076.16;;;16.55;55.15
83815;BME280;73829;53.826;-3.034;2024-02-26T04:50:13;101080.73;;;16.54;55.17
83815;BME280;73829;53.826;-3.034;2024-02-26T04:52:44;101084.98;;;16.54;54.96
83815;BME280;73829;53.826;-3.034;2024-02-26T04:55:15;101094.83;;;16.54;55.09
83815;BME280;73829;53.826;-3.034;2024-02-26T04:57:46;101096.27;;;16.53;55.17
83815;BME280;73829;53.826;-3.034;2024-02-26T05:00:18;101099.10;;;16.52;55.10
83815;BME280;73829;53.826;-3.034;2024-02-26T05:02:49;101106.46;;;16.53;55.17
83815;BME280;73829;53.826;-3.034;2024-02-26T05:05:20;101110.86;;;16.52;55.19
83815;BME280;73829;53.826;-3.034;2024-02-26T05:07:52;101112.98;;;16.52;55.13
83815;BME280;73829;53.826;-3.034;2024-02-26T05:10:23;101115.27;;;16.52;55.01
83815;BME280;73829;53.826;-3.034;2024-02-26T05:12:55;101118.13;;;16.50;55.07
83815;BME280;73829;53.826;-3.034;2024-02-26T05:15:26;101120.05;;;16.51;54.98
83815;BME280;73829;53.826;-3.034;2024-02-26T05:17:57;101129.90;;;16.50;54.96
83815;BME280;73829;53.826;-3.034;2024-02-26T05:20:28;101135.19;;;16.49;55.28
83815;BME280;73829;53.826;-3.034;2024-02-26T05:22:59;101145.03;;;16.49;54.92
83815;BME280;73829;53.826;-3.034;2024-02-26T05:25:31;101154.89;;;16.48;55.04
83815;BME280;73829;53.826;-3.034;2024-02-26T05:28:02;101171.42;;;16.48;54.91
83815;BME280;73829;53.826;-3.034;2024-02-26T05:30:33;101179.34;;;16.47;55.08
83815;BME280;73829;53.826;-3.034;2024-02-26T05:33:05;101183.58;;;16.47;55.13
83815;BME280;73829;53.826;-3.034;2024-02-26T05:35:36;101191.67;;;16.46;55.02
83815;BME280;73829;53.826;-3.034;2024-02-26T05:38:07;101192.02;;;16.46;55.07
83815;BME280;73829;53.826;-3.034;2024-02-26T05:40:38;101198.73;;;16.45;55.03
83815;BME280;73829;53.826;-3.034;2024-02-26T05:43:10;101205.23;;;16.44;55.06
83815;BME280;73829;53.826;-3.034;2024-02-26T05:45:45;101211.23;;;16.44;55.03
83815;BME280;73829;53.826;-3.034;2024-02-26T05:48:16;101221.06;;;16.43;54.94
83815;BME280;73829;53.826;-3.034;2024-02-26T05:50:48;101218.10;;;16.43;55.05
83815;BME280;73829;53.826;-3.034;2024-02-26T05:53:19;101225.13;;;16.43;55.12
83815;BME280;73829;53.826;-3.034;2024-02-26T05:55:51;101227.59;;;16.43;54.99
83815;BME280;73829;53.826;-3.034;2024-02-26T05:58:22;101227.59;;;16.43;54.94
83815;BME280;73829;53.826;-3.034;2024-02-26T06:00:53;101227.79;;;16.42;55.03
83815;BME280;73829;53.826;-3.034;2024-02-26T06:03:24;101223.92;;;16.42;54.94
83815;BME280;73829;53.826;-3.034;2024-02-26T06:05:55;101226.41;;;16.41;54.88
83815;BME280;73829;53.826;-3.034;2024-02-26T06:08:26;101232.19;;;16.42;55.09
83815;BME280;73829;53.826;-3.034;2024-02-26T06:10:58;101238.00;;;16.41;55.00
83815;BME280;73829;53.826;-3.034;2024-02-26T06:13:29;101243.65;;;16.40;55.03
83815;BME280;73829;53.826;-3.034;2024-02-26T06:16:01;101255.42;;;16.40;55.07
83815;BME280;73829;53.826;-3.034;2024-02-26T06:18:32;101260.89;;;16.39;55.02
83815;BME280;73829;53.826;-3.034;2024-02-26T06:21:08;101264.23;;;16.39;55.04
83815;BME280;73829;53.826;-3.034;2024-02-26T06:23:39;101270.20;;;16.39;55.03
83815;BME280;73829;53.826;-3.034;2024-02-26T06:26:11;101278.11;;;16.39;55.00
83815;BME280;73829;53.826;-3.034;2024-02-26T06:28:42;101289.70;;;16.38;54.80
83815;BME280;73829;53.826;-3.034;2024-02-26T06:31:13;101290.78;;;16.38;54.93
83815;BME280;73829;53.826;-3.034;2024-02-26T06:33:44;101289.76;;;16.37;55.07
83815;BME280;73829;53.826;-3.034;2024-02-26T06:36:15;101294.67;;;16.37;54.98
83815;BME280;73829;53.826;-3.034;2024-02-26T06:38:49;101293.27;;;16.37;54.91
83815;BME280;73829;53.826;-3.034;2024-02-26T06:41:21;101292.58;;;16.36;54.80
83815;BME280;73829;53.826;-3.034;2024-02-26T06:43:56;101298.90;;;16.37;54.90
83815;BME280;73829;53.826;-3.034;2024-02-26T06:46:28;101298.04;;;16.36;54.93
83815;BME280;73829;53.826;-3.034;2024-02-26T06:49:00;101296.98;;;16.35;54.84
83815;BME280;73829;53.826;-3.034;2024-02-26T06:51:31;101303.33;;;16.35;55.02
83815;BME280;73829;53.826;-3.034;2024-02-26T06:54:02;101310.36;;;16.35;54.81
83815;BME280;73829;53.826;-3.034;2024-02-26T06:56:33;101321.94;;;16.35;54.86
83815;BME280;73829;53.826;-3.034;2024-02-26T06:59:04;101326.86;;;16.35;54.77
83815;BME280;73829;53.826;-3.034;2024-02-26T07:01:36;101328.65;;;16.34;54.83
83815;BME280;73829;53.826;-3.034;2024-02-26T07:04:07;101332.88;;;16.33;54.72
83815;BME280;73829;53.826;-3.034;2024-02-26T07:06:40;101334.63;;;16.34;54.86
83815;BME280;73829;53.826;-3.034;2024-02-26T07:09:11;101330.42;;;16.33;54.77
83815;BME280;73829;53.826;-3.034;2024-02-26T07:11:43;101333.25;;;16.33;54.71
83815;BME280;73829;53.826;-3.034;2024-02-26T07:14:14;101339.40;;;16.33;54.89
83815;BME280;73829;53.826;-3.034;2024-02-26T07:16:45;101346.10;;;16.31;54.76
83815;BME280;73829;53.826;-3.034;2024-02-26T07:19:16;101352.77;;;16.32;54.72
83815;BME280;73829;53.826;-3.034;2024-02-26T07:21:47;101360.35;;;16.30;54.89
83815;BME280;73829;53.826;-3.034;2024-02-26T07:24:19;101367.70;;;16.31;54.79
83815;BME280;73829;53.826;-3.034;2024-02-26T07:26:50;101375.79;;;16.31;54.67
83815;BME280;73829;53.826;-3.034;2024-02-26T07:29:24;101384.05;;;16.31;54.82
83815;BME280;73829;53.826;-3.034;2024-02-26T07:31:55;101383.88;;;16.31;54.80
83815;BME280;73829;53.826;-3.034;2024-02-26T07:34:26;101387.23;;;16.30;54.78
83815;BME280;73829;53.826;-3.034;2024-02-26T07:36:58;101381.08;;;16.30;54.80
83815;BME280;73829;53.826;-3.034;2024-02-26T07:39:29;101378.28;;;16.30;54.59
83815;BME280;73829;53.826;-3.034;2024-02-26T07:42:00;101376.71;;;16.29;54.72
83815;BME280;73829;53.826;-3.034;2024-02-26T07:44:32;101384.27;;;16.28;54.81
83815;BME280;73829;53.826;-3.034;2024-02-26T07:47:04;101391.80;;;16.29;54.82
83815;BME280;73829;53.826;-3.034;2024-02-26T07:49:35;101395.34;;;16.29;54.85
83815;BME280;73829;53.826;-3.034;2024-02-26T07:52:07;101404.69;;;16.27;54.86
83815;BME280;73829;53.826;-3.034;2024-02-26T07:54:38;101412.58;;;16.28;54.75
83815;BME280;73829;53.826;-3.034;2024-02-26T07:57:09;101421.54;;;16.27;54.76
83815;BME280;73829;53.826;-3.034;2024-02-26T07:59:41;101425.95;;;16.27;54.69
83815;BME280;73829;53.826;-3.034;2024-02-26T08:02:14;101427.71;;;16.26;54.79
83815;BME280;73829;53.826;-3.034;2024-02-26T08:04:45;101427.20;;;16.26;54.77
83815;BME280;73829;53.826;-3.034;2024-02-26T08:07:17;101434.56;;;16.25;54.59
83815;BME280;73829;53.826;-3.034;2024-02-26T08:09:49;101444.23;;;16.25;54.63
83815;BME280;73829;53.826;-3.034;2024-02-26T08:12:20;101448.82;;;16.25;54.61
83815;BME280;73829;53.826;-3.034;2024-02-26T08:14:51;101452.16;;;16.25;54.55
83815;BME280;73829;53.826;-3.034;2024-02-26T08:17:22;101457.11;;;16.23;54.69
83815;BME280;73829;53.826;-3.034;2024-02-26T08:19:53;101464.11;;;16.24;54.70
83815;BME280;73829;53.826;-3.034;2024-02-26T08:22:24;101469.40;;;16.24;54.73
83815;BME280;73829;53.826;-3.034;2024-02-26T08:24:55;101475.89;;;16.24;54.65
83815;BME280;73829;53.826;-3.034;2024-02-26T08:27:26;101479.26;;;16.22;54.61
83815;BME280;73829;53.826;-3.034;2024-02-26T08:29:57;101485.21;;;16.23;54.73
83815;BME280;73829;53.826;-3.034;2024-02-26T08:32:28;101487.50;;;16.23;54.58
83815;BME280;73829;53.826;-3.034;2024-02-26T08:34:59;101488.55;;;16.23;54.62
83815;BME280;73829;53.826;-3.034;2024-02-26T08:37:30;101489.08;;;16.23;54.71
83815;BME280;73829;53.826;-3.034;2024-02-26T08:40:01;101480.64;;;16.24;54.58
83815;BME280;73829;53.826;-3.034;2024-02-26T08:42:33;101483.08;;;16.24;54.77
83815;BME280;73829;53.826;-3.034;2024-02-26T08:45:05;101493.40;;;16.25;54.74
83815;BME280;73829;53.826;-3.034;2024-02-26T08:47:37;101493.22;;;16.25;54.97
83815;BME280;73829;53.826;-3.034;2024-02-26T08:50:09;101496.88;;;16.27;54.94
83815;BME280;73829;53.826;-3.034;2024-02-26T08:52:41;101497.52;;;16.29;54.90
83815;BME280;73829;53.826;-3.034;2024-02-26T08:55:13;101500.77;;;16.32;54.86
83815;BME280;73829;53.826;-3.034;2024-02-26T08:57:44;101501.44;;;16.34;54.96
83815;BME280;73829;53.826;-3.034;2024-02-26T09:00:17;101505.78;;;16.35;55.08
83815;BME280;73829;53.826;-3.034;2024-02-26T09:02:50;101508.89;;;16.37;55.02
83815;BME280;73829;53.826;-3.034;2024-02-26T09:05:21;101510.06;;;16.40;55.10
83815;BME280;73829;53.826;-3.034;2024-02-26T09:07:52;101513.02;;;16.41;55.03
83815;BME280;73829;53.826;-3.034;2024-02-26T09:10:24;101519.84;;;16.42;55.00
83815;BME280;73829;53.826;-3.034;2024-02-26T09:12:55;101521.73;;;16.43;54.93
83815;BME280;73829;53.826;-3.034;2024-02-26T09:15:26;101525.39;;;16.45;54.98
83815;BME280;73829;53.826;-3.034;2024-02-26T09:17:58;101531.70;;;16.45;55.15
83815;BME280;73829;53.826;-3.034;2024-02-26T09:20:29;101540.09;;;16.47;55.00
83815;BME280;73829;53.826;-3.034;2024-02-26T09:23:00;101545.67;;;16.48;55.11
83815;BME280;73829;53.826;-3.034;2024-02-26T09:25:32;101553.02;;;16.50;54.91
83815;BME280;73829;53.826;-3.034;2024-02-26T09:28:04;101555.46;;;16.50;54.98
83815;BME280;73829;53.826;-3.034;2024-02-26T09:30:35;101559.29;;;16.52;55.06
83815;BME280;73829;53.826;-3.034;2024-02-26T09:33:06;101561.02;;;16.52;55.01
83815;BME280;73829;53.826;-3.034;2024-02-26T09:35:37;101557.86;;;16.53;55.05
83815;BME280;73829;53.826;-3.034;2024-02-26T09:38:09;101555.02;;;16.54;55.22
83815;BME280;73829;53.826;-3.034;2024-02-26T09:40:41;101553.04;;;16.56;55.09
83815;BME280;73829;53.826;-3.034;2024-02-26T09:43:15;101550.40;;;16.56;55.01
83815;BME280;73829;53.826;-3.034;2024-02-26T09:45:48;101546.11;;;16.59;55.19
83815;BME280;73829;53.826;-3.034;2024-02-26T09:48:21;101546.72;;;16.63;55.09
83815;BME280;73829;53.826;-3.034;2024-02-26T09:50:53;101548.40;;;16.66;55.08
83815;BME280;73829;53.826;-3.034;2024-02-26T09:53:24;101547.92;;;16.70;55.09
83815;BME280;73829;53.826;-3.034;2024-02-26T09:55:56;101546.30;;;16.73;54.96
83815;BME280;73829;53.826;-3.034;2024-02-26T09:58:28;101549.40;;;16.76;54.98
83815;BME280;73829;53.826;-3.034;2024-02-26T10:01:02;101556.90;;;16.78;55.04
83815;BME280;73829;53.826;-3.034;2024-02-26T10:03:38;101554.78;;;16.79;55.10
83815;BME280;73829;53.826;-3.034;2024-02-26T10:06:10;101556.50;;;16.80;55.17
83815;BME280;73829;53.826;-3.034;2024-02-26T10:08:41;101565.45;;;16.81;55.11
83815;BME280;73829;53.826;-3.034;2024-02-26T10:11:13;101571.56;;;16.82;55.23
83815;BME280;73829;53.826;-3.034;2024-02-26T10:13:45;101584.03;;;16.82;55.10
83815;BME280;73829;53.826;-3.034;2024-02-26T10:16:17;101592.27;;;16.83;55.13
83815;BME280;73829;53.826;-3.034;2024-02-26T10:18:49;101601.65;;;16.87;55.21
83815;BME280;73829;53.826;-3.034;2024-02-26T10:21:22;101599.89;;;16.87;55.12
83815;BME280;73829;53.826;-3.034;2024-02-26T10:23:53;101604.55;;;16.91;54.92
83815;BME280;73829;53.826;-3.034;2024-02-26T10:26:24;101609.23;;;16.93;55.00
83815;BME280;73829;53.826;-3.034;2024-02-26T10:29:00;101617.10;;;16.95;55.05
83815;BME280;73829;53.826;-3.034;2024-02-26T10:31:33;101619.15;;;16.98;55.16
83815;BME280;73829;53.826;-3.034;2024-02-26T10:34:04;101621.76;;;16.98;54.96
83815;BME280;73829;53.826;-3.034;2024-02-26T10:36:37;101626.95;;;17.01;54.97
83815;BME280;73829;53.826;-3.034;2024-02-26T10:39:11;101631.70;;;17.02;55.05
83815;BME280;73829;53.826;-3.034;2024-02-26T10:41:44;101629.38;;;17.02;55.14
83815;BME280;73829;53.826;-3.034;2024-02-26T10:44:15;101631.50;;;17.02;55.13
83815;BME280;73829;53.826;-3.034;2024-02-26T10:46:47;101630.62;;;17.03;55.24
83815;BME280;73829;53.826;-3.034;2024-02-26T10:49:19;101631.52;;;17.01;55.08
83815;BME280;73829;53.826;-3.034;2024-02-26T10:51:54;101637.87;;;17.01;55.01
83815;BME280;73829;53.826;-3.034;2024-02-26T10:54:27;101639.29;;;17.00;55.26
83815;BME280;73829;53.826;-3.034;2024-02-26T10:57:00;101642.08;;;17.01;54.99
83815;BME280;73829;53.826;-3.034;2024-02-26T10:59:33;101646.27;;;17.02;55.33
83815;BME280;73829;53.826;-3.034;2024-02-26T11:02:06;101653.32;;;17.01;55.19
83815;BME280;73829;53.826;-3.034;2024-02-26T11:04:39;101654.69;;;17.03;55.16
83815;BME280;73829;53.826;-3.034;2024-02-26T11:07:11;101658.21;;;17.02;55.34
83815;BME280;73829;53.826;-3.034;2024-02-26T11:09:43;101666.28;;;17.03;55.25
83815;BME280;73829;53.826;-3.034;2024-02-26T11:12:17;101661.01;;;17.03;55.22
83815;BME280;73829;53.826;-3.034;2024-02-26T11:14:49;101659.95;;;17.03;55.11
83815;BME280;73829;53.826;-3.034;2024-02-26T11:17:26;101659.05;;;17.04;55.02
83815;BME280;73829;53.826;-3.034;2024-02-26T11:19:59;101663.08;;;17.05;55.20
83815;BME280;73829;53.826;-3.034;2024-02-26T11:22:32;101666.78;;;17.04;55.02
83815;BME280;73829;53.826;-3.034;2024-02-26T11:25:03;101664.71;;;17.03;55.19
83815;BME280;73829;53.826;-3.034;2024-02-26T11:27:37;101674.50;;;17.05;55.16
83815;BME280;73829;53.826;-3.034;2024-02-26T11:30:14;101684.02;;;17.04;54.99
83815;BME280;73829;53.826;-3.034;2024-02-26T11:32:47;101687.88;;;17.04;55.23
83815;BME280;73829;53.826;-3.034;2024-02-26T11:35:20;101686.30;;;17.04;55.11
83815;BME280;73829;53.826;-3.034;2024-02-26T11:37:56;101689.46;;;17.04;55.08
83815;BME280;73829;53.826;-3.034;2024-02-26T11:40:28;101691.79;;;17.03;55.10
83815;BME280;73829;53.826;-3.034;2024-02-26T11:42:59;101694.63;;;17.01;55.07
83815;BME280;73829;53.826;-3.034;2024-02-26T11:45:51;101697.14;;;16.99;55.06
83815;BME280;73829;53.826;-3.034;2024-02-26T11:48:30;101702.95;;;16.99;55.19
83815;BME280;73829;53.826;-3.034;2024-02-26T11:51:02;101703.45;;;17.00;54.99
83815;BME280;73829;53.826;-3.034;2024-02-26T11:53:35;101699.57;;;17.01;55.19
83815;BME280;73829;53.826;-3.034;2024-02-26T11:56:26;101695.66;;;17.03;55.06
83815;BME280;73829;53.826;-3.034;2024-02-26T11:59:03;101701.23;;;17.05;55.17
83815;BME280;73829;53.826;-3.034;2024-02-26T12:01:40;101702.61;;;17.05;55.37
83815;BME280;73829;53.826;-3.034;2024-02-26T12:04:16;101703.12;;;17.07;55.35
83815;BME280;73829;53.826;-3.034;2024-02-26T12:06:50;101706.42;;;17.08;55.07
83815;BME280;73829;53.826;-3.034;2024-02-26T12:09:34;101704.63;;;17.10;55.19
83815;BME280;73829;53.826;-3.034;2024-02-26T12:12:08;101708.84;;;17.10;55.11
83815;BME280;73829;53.826;-3.034;2024-02-26T12:14:53;101707.63;;;17.09;55.13
83815;BME280;73829;53.826;-3.034;2024-02-26T12:17:26;101709.55;;;17.09;55.15
83815;BME280;73829;53.826;-3.034;2024-02-26T12:20:09;101712.73;;;17.08;55.04
83815;BME280;73829;53.826;-3.034;2024-02-26T12:22:41;101707.35;;;17.06;55.03
83815;BME280;73829;53.826;-3.034;2024-02-26T12:25:15;101704.22;;;17.05;55.03
83815;BME280;73829;53.826;-3.034;2024-02-26T12:27:47;101708.27;;;17.04;55.05
83815;BME280;73829;53.826;-3.034;2024-02-26T12:30:18;101707.59;;;17.03;55.18
83815;BME280;73829;53.826;-3.034;2024-02-26T12:32:50;101707.11;;;17.01;55.31
83815;BME280;73829;53.826;-3.034;2024-02-26T12:35:21;101708.55;;;17.00;55.23
83815;BME280;73829;53.826;-3.034;2024-02-26T12:37:52;101700.47;;;17.00;55.11
83815;BME280;73829;53.826;-3.034;2024-02-26T12:40:24;101703.94;;;17.02;54.86
83815;BME280;73829;53.826;-3.034;2024-02-26T12:42:56;101705.33;;;17.02;54.95
83815;BME280;73829;53.826;-3.034;2024-02-26T12:45:27;101710.20;;;17.04;54.93
83815;BME280;73829;53.826;-3.034;2024-02-26T12:48:00;101710.02;;;17.05;54.91
83815;BME280;73829;53.826;-3.034;2024-02-26T12:50:31;101715.30;;;17.05;54.82
83815;BME280;73829;53.826;-3.034;2024-02-26T12:53:03;101712.98;;;17.06;55.03
83815;BME280;73829;53.826;-3.034;2024-02-26T12:55:34;101716.33;;;17.06;54.91
83815;BME280;73829;53.826;-3.034;2024-02-26T12:58:09;101722.11;;;17.07;54.83
83815;BME280;73829;53.826;-3.034;2024-02-26T13:00:40;101729.14;;;17.07;54.95
83815;BME280;73829;53.826;-3.034;2024-02-26T13:03:12;101731.27;;;17.06;54.95
83815;BME280;73829;53.826;-3.034;2024-02-26T13:05:43;101745.68;;;17.06;54.79